Time;durP1;ratioP1;P1;durP2;ratioP2;P2;SDS_P1;SDS_P2;PMS_P1;PMS_P2;Temp;Humidity;BMP_temperature;BMP_pressure;BME280_temperature;BME280_humidity;BME280_pressure;Samples;Min_cycle;Max_cycle;Signal;HPM_P1;HPM_P2
2023/05/11 05:15:58;;;;;;;26.93;11.88;;;;;;;13.20;47.51;100737.44;1665397;84;21266;-79
2023/05/11 05:19:05;;;;;;;22.67;10.08;;;;;;;13.57;46.71;100747.31;1666100;86;22551;-80
2023/05/11 05:22:10;;;;;;;25.27;9.35;;;;;;;13.49;46.70;100740.84;1667294;86;21847;-79
2023/05/11 05:25:16;;;;;;;22.42;10.95;;;;;;;13.58;45.21;100738.02;1661700;84;21262;-80
2023/05/11 05:28:21;;;;;;;27.65;12.60;;;;;;;13.61;44.63;100739.89;1664881;84;21252;-80
2023/05/11 05:31:26;;;;;;;38.50;13.98;;;;;;;13.69;43.85;100740.31;1666227;84;21196;-80
2023/05/11 05:34:32;;;;;;;36.25;12.18;;;;;;;13.63;44.70;100743.82;1662745;84;21214;-80
2023/05/11 05:37:37;;;;;;;24.55;10.32;;;;;;;13.30;44.95;100741.34;1662486;84;21231;-80
2023/05/11 05:40:43;;;;;;;19.62;8.90;;;;;;;14.08;43.76;100739.26;1666934;84;21290;-80
2023/05/11 05:43:44;;;;;;;16.67;6.67;;;;;;;13.90;43.91;100736.34;1649353;85;21239;-80
2023/05/11 05:46:36;;;;;;;13.95;6.95;;;;;;;14.17;42.83;100738.13;1646021;85;21257;-80
2023/05/11 05:49:42;;;;;;;12.50;5.25;;;;;;;14.66;42.01;100737.02;1645087;85;21193;-80
2023/05/11 05:52:49;;;;;;;11.45;5.53;;;;;;;15.40;39.18;100739.53;1649488;85;21275;-80
2023/05/11 05:55:55;;;;;;;18.45;5.90;;;;;;;15.74;38.55;100736.05;1649185;85;21232;-80
2023/05/11 05:59:01;;;;;;;22.48;5.83;;;;;;;14.78;40.10;100733.25;1647560;85;21256;-81
2023/05/11 06:02:07;;;;;;;15.85;5.40;;;;;;;14.48;39.36;100737.41;1644524;85;21802;-81
2023/05/11 06:05:14;;;;;;;16.80;5.75;;;;;;;14.34;39.38;100734.11;1643694;85;21220;-80
2023/05/11 06:08:19;;;;;;;19.70;5.25;;;;;;;14.77;39.81;100739.78;1651125;85;21760;-79
2023/05/11 06:11:26;;;;;;;11.50;4.40;;;;;;;14.75;39.29;100737.76;1648594;85;21193;-79
2023/05/11 06:14:32;;;;;;;14.43;4.75;;;;;;;14.48;39.01;100743.44;1681130;83;21242;-79
2023/05/11 06:17:38;;;;;;;9.15;3.80;;;;;;;14.96;39.58;100733.69;1616640;87;21184;-79
2023/05/11 06:20:44;;;;;;;15.88;4.70;;;;;;;15.01;37.94;100740.84;1623235;88;21339;-79
2023/05/11 06:23:50;;;;;;;12.65;4.83;;;;;;;15.38;37.29;100736.10;1648472;85;21189;-79
2023/05/11 06:26:58;;;;;;;9.45;3.77;;;;;;;15.32;37.80;100736.90;1637345;85;21169;-80
2023/05/11 06:30:03;;;;;;;13.38;4.20;;;;;;;15.84;35.83;100737.92;1627658;86;21152;-80
2023/05/11 06:33:11;;;;;;;10.15;4.15;;;;;;;15.54;33.69;100741.36;1638208;85;21359;-79
2023/05/11 06:36:19;;;;;;;13.55;4.55;;;;;;;15.59;34.07;100755.41;1639641;85;21193;-80
2023/05/11 06:39:25;;;;;;;32.83;7.05;;;;;;;15.66;34.55;100740.84;1632363;85;21248;-80
2023/05/11 06:42:31;;;;;;;27.20;6.22;;;;;;;16.74;33.65;100756.86;1643451;85;21278;-79
2023/05/11 06:45:37;;;;;;;24.05;6.72;;;;;;;16.58;34.02;100746.14;1641833;85;21208;-79
2023/05/11 06:48:43;;;;;;;19.75;6.08;;;;;;;17.09;33.42;100731.91;1635110;85;21338;-79
2023/05/11 06:51:48;;;;;;;13.45;3.33;;;;;;;16.72;34.80;100748.47;1627281;85;21873;-79
2023/05/11 06:54:53;;;;;;;12.73;3.80;;;;;;;16.36;33.39;100744.84;1651742;86;21200;-79
2023/05/11 06:57:58;;;;;;;10.40;3.15;;;;;;;16.77;31.12;100749.55;1653838;86;21224;-79
2023/05/11 07:01:06;;;;;;;15.13;3.12;;;;;;;16.73;31.44;100750.16;1622556;85;21289;-79
2023/05/11 07:04:12;;;;;;;15.45;5.12;;;;;;;17.27;30.77;100742.37;1634520;85;21911;-80
2023/05/11 07:07:18;;;;;;;14.90;5.08;;;;;;;15.84;33.11;100744.81;1651038;84;21306;-79
2023/05/11 07:10:18;;;;;;;11.28;3.50;;;;;;;17.60;30.65;100741.03;1660205;84;21228;-80
2023/05/11 07:13:11;;;;;;;5.75;2.72;;;;;;;18.14;29.82;100749.11;1689795;84;21322;-79
2023/05/11 07:16:16;;;;;;;6.67;2.45;;;;;;;18.21;28.63;100742.20;1669685;85;21219;-80
2023/05/11 07:19:22;;;;;;;16.90;3.50;;;;;;;18.22;28.72;100739.73;1642664;85;21253;-80
2023/05/11 07:22:28;;;;;;;13.93;2.52;;;;;;;18.44;29.09;100737.53;1653437;85;21194;-80
2023/05/11 07:25:33;;;;;;;3.92;1.80;;;;;;;18.52;29.35;100739.23;1658104;86;21192;-80
2023/05/11 07:28:33;;;;;;;4.90;2.25;;;;;;;18.82;27.63;100747.88;1650448;85;21193;-80
2023/05/11 07:31:26;;;;;;;7.65;2.42;;;;;;;19.01;27.71;100748.34;1643751;85;21224;-80
2023/05/11 07:34:31;;;;;;;10.18;2.55;;;;;;;19.30;27.40;100746.89;1643373;85;21756;-80
2023/05/11 07:37:37;;;;;;;7.37;1.80;;;;;;;19.85;27.49;100751.83;1646068;85;21241;-80
2023/05/11 07:40:46;;;;;;;2.05;1.32;;;;;;;19.42;26.96;100751.17;1644258;85;21335;-79
2023/05/11 07:43:56;;;;;;;7.15;1.70;;;;;;;19.61;26.25;100735.48;1648674;85;21233;-80
2023/05/11 07:47:02;;;;;;;7.30;1.40;;;;;;;19.93;26.81;100739.06;1638728;86;21265;-80
2023/05/11 07:50:08;;;;;;;10.00;1.67;;;;;;;19.86;26.99;100746.61;1632992;86;21224;-80
2023/05/11 07:53:16;;;;;;;6.00;1.40;;;;;;;20.00;27.12;100741.80;1631518;87;21277;-80
2023/05/11 07:56:15;;;;;;;3.08;1.62;;;;;;;19.77;27.04;100754.36;1644596;85;21217;-80
2023/05/11 07:59:20;;;;;;;5.95;1.32;;;;;;;19.47;26.76;100738.02;1652359;85;21214;-80
2023/05/11 08:02:25;;;;;;;5.47;1.57;;;;;;;19.52;26.87;100744.58;1639894;85;21223;-80
2023/05/11 08:05:36;;;;;;;3.65;1.60;;;;;;;19.51;27.13;100734.56;1642172;86;21555;-79
2023/05/11 08:08:37;;;;;;;2.83;1.20;;;;;;;19.21;27.94;100739.91;1641857;85;21228;-79
2023/05/11 08:11:43;;;;;;;9.23;1.47;;;;;;;19.86;27.90;100730.80;1647428;85;21762;-79
2023/05/11 08:14:51;;;;;;;4.08;1.27;;;;;;;20.13;27.73;100736.93;1639072;85;21289;-79
2023/05/11 08:17:56;;;;;;;3.62;1.50;;;;;;;20.13;26.25;100728.59;1643074;84;21304;-80
2023/05/11 08:21:07;;;;;;;1.67;1.07;;;;;;;19.18;27.22;100732.02;1644945;85;21284;-80
2023/05/11 08:24:12;;;;;;;4.85;1.55;;;;;;;20.55;26.92;100732.98;1651178;85;21182;-79
2023/05/11 08:27:24;;;;;;;1.85;1.20;;;;;;;20.20;26.72;100730.48;1650843;85;21220;-80
2023/05/11 08:30:31;;;;;;;4.05;1.42;;;;;;;20.52;26.23;100729.30;1628092;87;21194;-80
2023/05/11 08:33:37;;;;;;;3.42;1.25;;;;;;;20.74;25.37;100731.59;1639236;87;21253;-80
2023/05/11 08:36:44;;;;;;;6.17;1.40;;;;;;;21.03;25.21;100735.48;1646824;85;21245;-80
2023/05/11 08:39:50;;;;;;;5.60;2.05;;;;;;;21.07;25.03;100739.49;1648585;85;21205;-80
2023/05/11 08:42:56;;;;;;;8.80;1.72;;;;;;;20.45;25.25;100732.66;1651216;85;21210;-80
2023/05/11 08:46:06;;;;;;;4.95;1.60;;;;;;;20.87;25.79;100726.71;1662279;85;21208;-80
2023/05/11 08:49:13;;;;;;;6.28;1.32;;;;;;;20.78;25.79;100744.79;1640050;85;21217;-80
2023/05/11 08:52:05;;;;;;;;;;;;;;;20.62;25.97;100735.70;1669967;85;22443;-80
2023/05/11 08:55:10;;;;;;;3.40;1.30;;;;;;;20.77;25.10;100731.14;1635522;87;20205;-80
2023/05/11 08:58:19;;;;;;;6.80;1.37;;;;;;;20.83;25.20;100735.75;1641308;85;21271;-80
2023/05/11 09:01:23;;;;;;;2.33;1.20;;;;;;;20.74;25.31;100724.09;1649105;85;21212;-80
2023/05/11 09:04:28;;;;;;;6.25;1.82;;;;;;;20.63;25.28;100725.73;1642119;85;21209;-80
2023/05/11 09:07:34;;;;;;;4.85;2.40;;;;;;;20.57;26.71;100726.67;1672380;84;22582;-80
2023/05/11 09:10:41;;;;;;;3.90;1.98;;;;;;;20.54;27.40;100734.08;1640666;87;21233;-80
2023/05/11 09:13:45;;;;;;;8.63;2.22;;;;;;;20.27;27.82;100736.80;1661604;85;21771;-79
2023/05/11 09:16:51;;;;;;;5.70;2.10;;;;;;;20.16;28.07;100730.08;1665792;85;21220;-79
2023/05/11 09:20:08;;;;;;;16.82;2.60;;;;;;;20.13;28.42;100731.38;1640535;85;21282;-79
2023/05/11 09:23:13;;;;;;;8.65;2.17;;;;;;;20.15;27.68;100721.45;1641907;85;21192;-79
2023/05/11 09:26:28;;;;;;;10.88;1.90;;;;;;;20.15;28.01;100720.91;1620994;87;21197;-79
2023/05/11 09:29:34;;;;;;;3.72;1.98;;;;;;;20.11;28.27;100725.22;1642920;87;21261;-80
2023/05/11 09:33:01;;;;;;;6.10;1.98;;;;;;;19.94;28.23;100721.32;1647436;85;21231;-79
2023/05/11 09:36:08;;;;;;;4.05;2.33;;;;;;;20.14;28.27;100716.44;1651359;84;21181;-80
2023/05/11 09:39:13;;;;;;;5.00;1.60;;;;;;;20.06;26.99;100723.67;1632962;86;21220;-79
2023/05/11 09:42:26;;;;;;;3.17;1.65;;;;;;;20.07;27.72;100720.34;1651109;85;21245;-80
2023/05/11 09:45:46;;;;;;;4.78;1.72;;;;;;;20.10;27.71;100708.25;1623107;86;21272;-80
2023/05/11 09:48:51;;;;;;;6.08;1.85;;;;;;;20.27;27.40;100706.25;1648102;85;21212;-79
2023/05/11 09:51:58;;;;;;;9.68;1.90;;;;;;;20.39;28.12;100714.13;1643382;85;21256;-79
2023/05/11 09:55:04;;;;;;;8.35;2.02;;;;;;;20.63;26.91;100713.77;1618372;87;21268;-79
2023/05/11 09:58:10;;;;;;;2.47;1.20;;;;;;;20.83;27.00;100707.95;1642336;87;21285;-80
2023/05/11 10:01:15;;;;;;;21.73;2.35;;;;;;;20.79;27.05;100709.50;1649971;86;21305;-80
2023/05/11 10:04:21;;;;;;;5.83;1.57;;;;;;;20.78;26.11;100706.42;1651354;87;21320;-79
2023/05/11 10:07:40;;;;;;;5.97;1.67;;;;;;;20.63;26.45;100710.45;1646014;87;21378;-80
2023/05/11 10:10:45;;;;;;;3.47;1.60;;;;;;;20.51;26.86;100710.91;1628497;87;21224;-79
2023/05/11 10:13:51;;;;;;;2.98;1.37;;;;;;;20.48;26.08;100709.16;1630611;86;21213;-80
2023/05/11 10:16:57;;;;;;;7.05;1.47;;;;;;;20.45;26.23;100708.19;1654308;86;21223;-80
2023/05/11 10:20:05;;;;;;;3.72;1.60;;;;;;;20.43;26.27;100707.05;1653532;85;21234;-79
2023/05/11 10:23:11;;;;;;;7.28;1.67;;;;;;;20.33;25.49;100708.97;1640561;86;21276;-80
2023/05/11 10:26:16;;;;;;;4.12;1.70;;;;;;;20.15;26.03;100705.63;1644549;86;21227;-79
2023/05/11 10:29:21;;;;;;;3.83;1.52;;;;;;;19.96;26.09;100705.30;1653973;85;21224;-79
2023/05/11 10:32:27;;;;;;;5.30;1.30;;;;;;;20.54;25.64;100705.44;1637075;85;21216;-79
2023/05/11 10:35:33;;;;;;;3.98;1.27;;;;;;;20.65;25.68;100704.14;1651974;85;21201;-79
2023/05/11 10:38:38;;;;;;;7.33;1.30;;;;;;;20.61;25.46;100716.80;1616702;86;21256;-79
2023/05/11 10:42:01;;;;;;;3.75;1.02;;;;;;;20.65;26.54;100711.08;1640084;86;21195;-79
2023/05/11 10:45:56;;;;;;;16.02;2.17;;;;;;;20.80;26.62;100719.56;1670233;84;21248;-79
2023/05/11 10:49:28;;;;;;;3.98;1.05;;;;;;;20.47;26.55;100723.59;1644685;85;21775;-79
2023/05/11 10:53:13;;;;;;;8.68;1.32;;;;;;;20.46;26.63;100717.67;1632580;87;22553;-79
2023/05/11 10:56:56;;;;;;;4.65;1.60;;;;;;;20.48;26.80;100711.39;1647744;84;21275;-79
2023/05/11 11:00:29;;;;;;;7.92;1.67;;;;;;;20.73;25.85;100713.22;1620617;86;21244;-80
2023/05/11 11:03:30;;;;;;;2.58;1.27;;;;;;;20.41;26.38;100716.13;1644987;87;21245;-79
2023/05/11 11:06:35;;;;;;;2.45;1.22;;;;;;;20.74;26.73;100712.13;1652043;84;21204;-79
2023/05/11 11:10:07;;;;;;;6.80;1.35;;;;;;;20.91;26.29;100708.48;1662004;84;21279;-79
2023/05/11 11:13:17;;;;;;;2.75;1.30;;;;;;;21.13;25.95;100701.87;1664047;84;21240;-79
2023/05/11 11:16:24;;;;;;;2.80;1.40;;;;;;;21.07;25.54;100695.84;1678717;84;21208;-79
2023/05/11 11:19:42;;;;;;;1.70;1.30;;;;;;;21.42;25.50;100704.34;1648240;86;21330;-79
2023/05/11 11:22:51;;;;;;;3.10;1.05;;;;;;;21.53;25.69;100704.60;1625515;86;21902;-79
2023/05/11 11:25:59;;;;;;;3.50;1.22;;;;;;;20.13;26.47;100709.70;1658919;85;21232;-79
2023/05/11 11:29:16;;;;;;;3.80;1.27;;;;;;;21.07;26.95;100702.80;1661596;84;21276;-79
2023/05/11 11:32:31;;;;;;;6.70;1.32;;;;;;;21.49;25.15;100701.98;1656114;86;21791;-79
2023/05/11 11:35:52;;;;;;;3.37;1.42;;;;;;;21.22;24.78;100701.52;1658648;86;21807;-79
2023/05/11 11:39:06;;;;;;;;;;;;;;;21.10;24.76;100698.70;1690018;84;21790;-79
2023/05/11 11:42:13;;;;;;;18.42;2.12;;;;;;;20.88;25.95;100708.09;1688424;85;20229;-79
2023/05/11 11:45:37;;;;;;;4.03;1.30;;;;;;;20.74;26.26;100704.64;1686975;85;21220;-79
2023/05/11 11:48:47;;;;;;;4.60;1.32;;;;;;;20.57;26.44;100706.38;1687692;85;21212;-79
2023/05/11 11:51:52;;;;;;;2.52;1.15;;;;;;;20.39;27.12;100707.19;1688184;85;21263;-79
2023/05/11 11:55:01;;;;;;;12.60;1.60;;;;;;;19.84;28.21;100699.62;1687222;85;21818;-79
2023/05/11 11:58:07;;;;;;;4.22;1.40;;;;;;;19.80;27.25;100704.48;1688320;85;21240;-80
2023/05/11 12:01:25;;;;;;;9.53;1.40;;;;;;;19.97;27.47;100704.22;1687100;85;21236;-79
2023/05/11 12:04:39;;;;;;;11.68;1.77;;;;;;;20.07;27.73;100703.69;1688425;85;21200;-80
2023/05/11 12:07:56;;;;;;;10.38;1.75;;;;;;;19.68;27.26;100704.38;1688622;85;21273;-80
2023/05/11 12:11:05;;;;;;;4.10;1.50;;;;;;;19.81;26.73;100700.65;1687943;85;21231;-80
2023/05/11 12:14:12;;;;;;;5.47;1.62;;;;;;;19.97;26.90;100695.89;1672189;84;21214;-80
2023/05/11 12:17:18;;;;;;;5.47;1.62;;;;;;;19.74;27.26;100698.45;1662370;85;22454;-80
2023/05/11 12:20:26;;;;;;;12.37;1.72;;;;;;;19.97;27.42;100697.27;1684174;85;21796;-80
2023/05/11 12:23:26;;;;;;;13.80;1.85;;;;;;;19.99;27.43;100692.88;1653454;84;21216;-80
2023/05/11 12:26:34;;;;;;;4.35;1.50;;;;;;;20.04;26.37;100700.85;1650007;86;21307;-80
2023/05/11 12:29:40;;;;;;;5.67;1.50;;;;;;;20.33;25.92;100692.30;1651932;86;21882;-80
2023/05/11 12:32:47;;;;;;;5.75;1.57;;;;;;;20.17;26.31;100690.12;1651836;86;21228;-80
2023/05/11 12:35:56;;;;;;;3.17;1.40;;;;;;;20.21;27.01;100692.75;1651686;86;21524;-79
2023/05/11 12:39:02;;;;;;;5.58;1.65;;;;;;;20.44;26.56;100693.45;1640479;87;21272;-80
2023/05/11 12:42:09;;;;;;;12.90;1.92;;;;;;;20.26;26.70;100683.72;1645499;87;21281;-80
2023/05/11 12:45:16;;;;;;;8.80;2.45;;;;;;;20.40;27.31;100693.60;1652107;86;21213;-80
2023/05/11 12:48:22;;;;;;;9.23;1.70;;;;;;;20.29;27.36;100686.05;1652267;86;21216;-80
2023/05/11 12:51:53;;;;;;;3.92;1.30;;;;;;;20.31;26.31;100690.28;1651017;86;21248;-80
2023/05/11 12:55:00;;;;;;;8.35;1.50;;;;;;;20.28;25.88;100692.66;1652183;86;21256;-79
2023/05/11 12:58:22;;;;;;;5.12;1.70;;;;;;;20.29;26.71;100690.22;1650995;85;21276;-80
2023/05/11 13:01:31;;;;;;;10.72;1.92;;;;;;;20.44;27.14;100693.45;1651245;85;21825;-79
2023/05/11 13:04:37;;;;;;;;;;;;;;;20.50;27.11;100688.92;1645121;87;21248;-79
2023/05/11 13:07:43;;;;;;;1.90;1.20;;;;;;;20.52;26.83;100684.84;1645691;87;20221;-79
2023/05/11 13:10:50;;;;;;;4.33;1.42;;;;;;;20.59;25.46;100680.03;1645118;87;21256;-79
2023/05/11 13:13:57;;;;;;;12.13;1.35;;;;;;;20.68;25.55;100685.58;1645587;87;21220;-79
2023/05/11 13:16:55;;;;;;;3.77;1.50;;;;;;;20.80;25.11;100680.09;1645642;87;21279;-79
2023/05/11 13:20:02;;;;;;;6.10;1.22;;;;;;;21.00;25.57;100690.09;1644085;87;21217;-79
2023/05/11 13:23:19;;;;;;;5.45;1.65;;;;;;;20.99;25.95;100680.91;1647148;86;21260;-79
2023/05/11 13:26:37;;;;;;;3.30;1.50;;;;;;;20.80;25.46;100680.09;1639500;87;21271;-79
2023/05/11 13:29:43;;;;;;;11.90;1.40;;;;;;;20.67;24.66;100675.55;1650498;87;21235;-79
2023/05/11 13:32:49;;;;;;;5.03;1.30;;;;;;;20.73;25.67;100677.09;1651103;87;21851;-79
2023/05/11 13:35:55;;;;;;;7.05;2.12;;;;;;;20.82;25.45;100678.47;1652705;87;21216;-79
2023/05/11 13:39:02;;;;;;;3.92;1.40;;;;;;;20.72;25.83;100680.95;1653057;87;21224;-79
2023/05/11 13:42:08;;;;;;;3.33;1.20;;;;;;;20.73;25.34;100675.70;1651837;87;21568;-79
2023/05/11 13:45:14;;;;;;;3.77;1.37;;;;;;;20.39;25.13;100682.19;1653358;87;21815;-79
2023/05/11 13:48:20;;;;;;;8.38;1.60;;;;;;;20.26;25.36;100680.41;1653250;87;21220;-79
2023/05/11 13:51:26;;;;;;;4.47;1.45;;;;;;;20.06;25.92;100692.28;1653012;87;21295;-79
2023/05/11 13:54:32;;;;;;;2.55;1.40;;;;;;;20.02;26.27;100686.87;1653379;87;21688;-80
2023/05/11 13:57:32;;;;;;;5.28;1.40;;;;;;;19.82;26.44;100690.70;1651701;87;21257;-80
2023/05/11 14:00:38;;;;;;;5.60;1.80;;;;;;;19.59;26.35;100693.22;1647721;86;21228;-80
2023/05/11 14:03:46;;;;;;;2.52;1.22;;;;;;;19.33;25.59;100691.48;1659849;86;21216;-80
2023/05/11 14:06:53;;;;;;;2.45;1.25;;;;;;;19.31;25.52;100689.48;1660660;86;21216;-79
2023/05/11 14:09:58;;;;;;;4.62;1.62;;;;;;;19.31;25.18;100689.48;1660959;86;21770;-80
2023/05/11 14:13:09;;;;;;;7.22;1.75;;;;;;;19.35;24.74;100694.91;1659894;86;21866;-79
2023/05/11 14:16:13;;;;;;;7.37;1.40;;;;;;;19.34;25.50;100689.05;1649659;86;21257;-80
2023/05/11 14:19:18;;;;;;;3.12;1.30;;;;;;;19.26;26.13;100693.48;1649226;87;21347;-79
2023/05/11 14:22:23;;;;;;;4.90;1.50;;;;;;;19.20;26.25;100695.23;1655806;86;21212;-79
2023/05/11 14:25:28;;;;;;;3.90;1.60;;;;;;;19.27;25.89;100697.95;1659098;85;21802;-79
2023/05/11 14:28:27;;;;;;;9.23;2.00;;;;;;;19.15;26.12;100697.83;1659785;86;21212;-79
2023/05/11 14:31:32;;;;;;;3.60;1.32;;;;;;;19.15;26.60;100697.28;1658696;86;21183;-79
2023/05/11 14:34:38;;;;;;;7.55;1.65;;;;;;;17.61;27.84;100690.18;1661002;86;21767;-80
2023/05/11 14:37:48;;;;;;;5.33;1.55;;;;;;;18.89;27.06;100698.82;1660938;86;21189;-79
2023/05/11 14:40:53;;;;;;;;;;;;;;;18.94;27.44;100695.38;1660512;85;21782;-81
2023/05/11 14:43:58;;;;;;;12.10;2.58;;;;;;;18.87;27.85;100696.81;1659277;86;20228;-81
2023/05/11 14:47:04;;;;;;;7.05;2.10;;;;;;;18.72;28.02;100694.84;1634081;88;21213;-81
2023/05/11 14:50:10;;;;;;;6.78;1.67;;;;;;;18.59;28.32;100691.05;1626674;88;21243;-79
2023/05/11 14:53:17;;;;;;;5.53;1.65;;;;;;;18.52;28.23;100696.29;1635652;87;21288;-79
2023/05/11 14:56:25;;;;;;;11.48;2.52;;;;;;;18.36;28.44;100694.87;1636959;87;21847;-80
2023/05/11 14:59:30;;;;;;;9.58;1.72;;;;;;;18.31;28.54;100693.30;1635665;87;21251;-79
2023/05/11 15:02:37;;;;;;;8.83;1.92;;;;;;;18.34;29.12;100695.60;1635060;87;21285;-79
2023/05/11 15:05:45;;;;;;;4.25;2.08;;;;;;;18.05;30.02;100698.34;1636954;87;21236;-79
2023/05/11 15:08:52;;;;;;;2.85;1.92;;;;;;;18.25;29.76;100696.91;1637490;87;21807;-79
2023/05/11 15:11:58;;;;;;;15.32;2.10;;;;;;;18.28;29.56;100697.87;1637734;87;21331;-79
2023/05/11 15:15:05;;;;;;;9.73;1.77;;;;;;;18.43;29.33;100700.38;1636180;87;22580;-80
2023/05/11 15:18:13;;;;;;;7.40;2.15;;;;;;;18.52;29.51;100705.45;1636516;87;21323;-80
2023/05/11 15:21:17;;;;;;;5.10;2.10;;;;;;;18.52;29.97;100709.60;1635198;87;21204;-79
2023/05/11 15:24:22;;;;;;;3.83;2.22;;;;;;;18.66;29.99;100704.86;1636808;87;21280;-80
2023/05/11 15:27:29;;;;;;;8.48;2.35;;;;;;;18.63;30.23;100708.94;1633685;87;21405;-79
2023/05/11 15:30:35;;;;;;;7.33;2.30;;;;;;;18.57;30.52;100704.25;1633128;88;21251;-80
2023/05/11 15:33:40;;;;;;;6.45;2.58;;;;;;;18.59;30.42;100701.28;1645142;87;21425;-80
2023/05/11 15:36:48;;;;;;;9.60;2.70;;;;;;;18.35;30.77;100702.87;1642102;87;22374;-79
2023/05/11 15:39:56;;;;;;;7.50;2.20;;;;;;;18.37;30.89;100704.87;1645792;87;21251;-80
2023/05/11 15:43:02;;;;;;;9.63;2.45;;;;;;;18.50;31.04;100704.83;1635902;87;21263;-79
2023/05/11 15:46:07;;;;;;;9.05;2.17;;;;;;;18.47;31.19;100708.03;1645639;87;21219;-79
2023/05/11 15:49:13;;;;;;;10.48;2.52;;;;;;;18.37;31.59;100709.88;1645794;87;21789;-80
2023/05/11 15:52:19;;;;;;;8.30;2.45;;;;;;;18.38;31.56;100710.72;1645591;87;21208;-79
2023/05/11 15:55:25;;;;;;;10.65;2.67;;;;;;;18.31;31.46;100715.45;1634725;87;21236;-79
2023/05/11 15:58:30;;;;;;;8.05;2.20;;;;;;;18.20;30.88;100712.78;1633249;87;21535;-79
2023/05/11 16:01:36;;;;;;;8.33;2.17;;;;;;;18.05;30.91;100707.50;1623311;88;21216;-79
2023/05/11 16:04:43;;;;;;;6.95;2.20;;;;;;;17.98;30.98;100712.21;1634399;87;21220;-79
2023/05/11 16:07:49;;;;;;;7.40;2.15;;;;;;;17.91;31.27;100712.73;1635271;87;21200;-79
2023/05/11 16:10:55;;;;;;;9.83;2.17;;;;;;;17.90;31.31;100715.73;1638018;87;21823;-79
2023/05/11 16:14:01;;;;;;;4.55;2.00;;;;;;;17.87;31.12;100712.84;1645503;87;22509;-79
2023/05/11 16:17:06;;;;;;;10.58;2.55;;;;;;;17.78;31.92;100713.59;1646019;87;21195;-79
2023/05/11 16:20:13;;;;;;;18.70;2.45;;;;;;;17.74;32.00;100712.88;1644076;87;21239;-79
2023/05/11 16:23:20;;;;;;;6.00;2.12;;;;;;;17.75;32.51;100717.34;1636448;87;21252;-78
2023/05/11 16:26:25;;;;;;;4.47;2.05;;;;;;;17.68;32.01;100719.21;1630498;87;21304;-79
2023/05/11 16:29:32;;;;;;;8.33;2.40;;;;;;;17.49;31.83;100717.61;1621701;88;21264;-79
2023/05/11 16:32:38;;;;;;;7.78;2.15;;;;;;;17.41;31.80;100717.84;1622632;88;21232;-79
2023/05/11 16:35:45;;;;;;;5.08;2.87;;;;;;;17.24;31.99;100726.20;1622641;88;21229;-79
2023/05/11 16:38:50;;;;;;;10.05;2.87;;;;;;;17.19;32.19;100721.84;1621388;88;21228;-79
2023/05/11 16:41:55;;;;;;;37.65;3.65;;;;;;;16.97;32.45;100726.13;1622836;88;21225;-79
2023/05/11 16:45:01;;;;;;;24.47;2.80;;;;;;;16.74;34.05;100727.85;1621587;88;21240;-79
2023/05/11 16:48:06;;;;;;;7.35;4.70;;;;;;;16.88;35.13;100727.38;1622619;88;21224;-79
2023/05/11 16:51:12;;;;;;;6.03;2.15;;;;;;;16.78;33.59;100733.83;1622516;88;21224;-79
2023/05/11 16:54:17;;;;;;;7.30;2.25;;;;;;;16.28;33.54;100734.53;1622620;88;21236;-79
2023/05/11 16:57:24;;;;;;;9.08;1.77;;;;;;;16.18;33.49;100736.77;1621366;88;21756;-79
2023/05/11 17:00:29;;;;;;;8.28;1.75;;;;;;;16.38;33.30;100741.91;1621702;87;21232;-79
2023/05/11 17:03:35;;;;;;;16.60;3.12;;;;;;;16.07;34.23;100740.42;1622579;88;21284;-79
2023/05/11 17:06:41;;;;;;;32.80;2.95;;;;;;;16.35;35.23;100742.30;1622696;88;21228;-79
2023/05/11 17:09:50;;;;;;;13.35;2.30;;;;;;;16.25;36.84;100744.58;1622544;88;21346;-79
2023/05/11 17:12:56;;;;;;;17.15;3.00;;;;;;;16.26;35.74;100740.76;1622544;88;21236;-79
2023/05/11 17:16:01;;;;;;;16.17;2.87;;;;;;;15.95;35.56;100739.30;1621507;88;21260;-78
2023/05/11 17:19:08;;;;;;;19.10;2.83;;;;;;;15.78;36.09;100744.25;1621272;88;21209;-78
2023/05/11 17:22:15;;;;;;;10.58;2.50;;;;;;;15.72;36.22;100753.86;1622661;88;21272;-80
2023/05/11 17:25:20;;;;;;;16.02;4.08;;;;;;;15.56;37.06;100743.91;1622035;88;21236;-80
2023/05/11 17:28:26;;;;;;;21.05;7.70;;;;;;;15.46;37.91;100753.89;1619681;86;21268;-80
2023/05/11 17:31:32;;;;;;;18.00;4.78;;;;;;;15.45;37.24;100753.57;1620184;88;21212;-80
2023/05/11 17:34:39;;;;;;;19.60;3.60;;;;;;;14.71;36.47;100759.84;1623358;88;21312;-79
2023/05/11 17:37:44;;;;;;;17.37;4.55;;;;;;;14.61;37.01;100764.80;1623592;88;21316;-79
2023/05/11 17:40:50;;;;;;;106.65;17.17;;;;;;;14.66;36.19;100769.20;1623506;88;21236;-79
2023/05/11 17:43:56;;;;;;;115.70;15.78;;;;;;;14.89;35.44;100768.54;1616208;88;21232;-79
2023/05/11 17:47:01;;;;;;;136.70;18.65;;;;;;;14.80;35.53;100771.08;1615565;88;22578;-79
2023/05/11 17:50:06;;;;;;;132.43;15.98;;;;;;;14.80;35.68;100773.83;1602309;89;21276;-79
2023/05/11 17:53:11;;;;;;;102.75;12.47;;;;;;;14.76;35.61;100778.02;1601096;89;21276;-79
2023/05/11 17:56:17;;;;;;;50.15;6.78;;;;;;;14.78;35.40;100776.78;1602468;89;21316;-79
2023/05/11 17:59:24;;;;;;;39.35;7.03;;;;;;;14.64;35.26;100783.70;1603397;89;21264;-79
2023/05/11 18:02:29;;;;;;;52.85;8.73;;;;;;;14.69;34.98;100786.72;1624085;88;21253;-79
2023/05/11 18:05:35;;;;;;;38.67;4.75;;;;;;;14.47;35.47;100782.47;1595446;90;21335;-79
2023/05/11 18:08:42;;;;;;;33.58;5.53;;;;;;;14.44;35.59;100786.97;1622546;88;21260;-79
2023/05/11 18:11:49;;;;;;;37.13;6.62;;;;;;;14.61;35.44;100790.95;1622657;88;21225;-79
2023/05/11 18:14:57;;;;;;;25.23;5.92;;;;;;;14.45;35.76;100791.98;1594367;90;21351;-79
2023/05/11 18:18:03;;;;;;;29.67;11.57;;;;;;;14.57;35.35;100795.45;1622633;88;21402;-79
2023/05/11 18:21:16;;;;;;;33.20;10.90;;;;;;;14.31;35.51;100795.05;1595740;90;21237;-79
2023/05/11 18:24:17;;;;;;;25.57;7.53;;;;;;;14.50;35.36;100795.89;1595650;90;21266;-78
2023/05/11 18:27:23;;;;;;;22.42;7.75;;;;;;;14.41;35.35;100798.38;1622505;88;21787;-79
2023/05/11 18:30:31;;;;;;;92.82;36.20;;;;;;;14.33;35.36;100795.70;1622337;88;21300;-78
2023/05/11 18:33:37;;;;;;;33.53;16.12;;;;;;;14.34;35.37;100797.41;1622419;88;21220;-79
2023/05/11 18:36:44;;;;;;;71.67;29.37;;;;;;;14.36;35.60;100795.86;1594665;90;21268;-79
2023/05/11 18:39:50;;;;;;;28.77;10.93;;;;;;;14.37;35.70;100801.17;1622722;88;21339;-79
2023/05/11 18:42:57;;;;;;;11.57;4.05;;;;;;;14.35;35.76;100803.77;1595601;90;21308;-79
2023/05/11 18:46:03;;;;;;;15.38;5.10;;;;;;;14.35;35.35;100802.38;1594967;90;21236;-79
2023/05/11 18:49:08;;;;;;;15.48;4.87;;;;;;;14.27;35.24;100795.95;1621515;88;21851;-79
2023/05/11 18:52:13;;;;;;;18.10;6.25;;;;;;;14.13;35.36;100801.44;1622683;88;21220;-79
2023/05/11 18:55:19;;;;;;;17.82;5.10;;;;;;;14.11;35.36;100800.75;1595672;90;21795;-79
2023/05/11 18:58:26;;;;;;;18.77;6.80;;;;;;;14.30;35.33;100804.33;1622640;88;21217;-78
2023/05/11 19:01:32;;;;;;;25.05;7.78;;;;;;;14.19;35.55;100806.18;1621881;88;21229;-79
2023/05/11 19:04:39;;;;;;;20.15;7.78;;;;;;;14.27;35.49;100810.23;1621371;88;21228;-79
2023/05/11 19:07:45;;;;;;;14.33;6.47;;;;;;;14.21;35.42;100806.83;1594639;90;21327;-78
2023/05/11 19:10:51;;;;;;;13.60;6.72;;;;;;;14.18;35.55;100812.20;1622600;88;22575;-79
2023/05/11 19:13:57;;;;;;;15.08;6.65;;;;;;;14.00;35.77;100811.17;1622657;88;21252;-78
2023/05/11 19:17:04;;;;;;;17.23;4.83;;;;;;;13.95;36.17;100811.41;1594474;90;21257;-79
2023/05/11 19:20:10;;;;;;;14.50;4.30;;;;;;;13.95;36.24;100812.25;1621429;88;21229;-78
2023/05/11 19:23:15;;;;;;;8.70;4.65;;;;;;;13.96;35.98;100813.95;1621350;88;21255;-79
2023/05/11 19:26:21;;;;;;;8.83;4.55;;;;;;;14.10;35.84;100814.18;1594369;90;21245;-78
2023/05/11 19:29:26;;;;;;;13.70;4.30;;;;;;;13.87;36.05;100821.95;1622230;88;21251;-78
2023/05/11 19:32:34;;;;;;;13.75;5.00;;;;;;;13.60;36.59;100815.15;1621602;87;21218;-79
2023/05/11 19:35:40;;;;;;;10.18;4.42;;;;;;;13.64;36.83;100816.98;1640058;87;21230;-79
2023/05/11 19:38:47;;;;;;;15.70;4.20;;;;;;;13.83;36.71;100819.23;1626698;88;21291;-80
2023/05/11 19:41:52;;;;;;;17.37;4.22;;;;;;;13.77;37.02;100819.97;1626804;88;21216;-80